Time;durP1;ratioP1;P1;durP2;ratioP2;P2;SDS_P1;SDS_P2;PMS_P1;PMS_P2;Temp;Humidity;BMP_temperature;BMP_pressure;BME280_temperature;BME280_humidity;BME280_pressure;Samples;Min_cycle;Max_cycle;Signal;HPM_P1;HPM_P2
2021/08/07 00:00:35;;;;;;;7.07;4.10;;;;;;;15.56;100.00;99820.31;5007010;28;20157;-86
2021/08/07 00:03:02;;;;;;;5.07;3.42;;;;;;;15.55;100.00;99821.31;5008654;28;20108;-85
2021/08/07 00:05:30;;;;;;;4.57;3.72;;;;;;;15.68;100.00;99827.19;4974125;28;20065;-87
2021/08/07 00:07:57;;;;;;;6.80;4.43;;;;;;;15.65;100.00;99824.81;4992819;28;20157;-85
2021/08/07 00:10:24;;;;;;;5.05;4.38;;;;;;;15.66;100.00;99826.47;5007719;28;20054;-87
2021/08/07 00:12:51;;;;;;;6.82;4.40;;;;;;;15.53;100.00;99822.41;4979985;28;20050;-84
2021/08/07 00:15:19;;;;;;;5.07;3.97;;;;;;;15.45;100.00;99828.44;4987348;28;20081;-86
2021/08/07 00:17:46;;;;;;;5.63;4.30;;;;;;;15.57;100.00;99829.94;5002005;28;20148;-85
2021/08/07 00:20:14;;;;;;;4.38;3.97;;;;;;;15.55;100.00;99828.44;4989536;28;20128;-85
2021/08/07 00:22:41;;;;;;;4.82;4.32;;;;;;;15.53;100.00;99825.91;4971935;28;20095;-87
2021/08/07 00:25:09;;;;;;;4.60;4.22;;;;;;;15.44;100.00;99829.41;4994284;28;20505;-86
2021/08/07 00:27:36;;;;;;;6.55;4.80;;;;;;;15.49;100.00;99823.66;4996597;28;20045;-85
2021/08/07 00:30:05;;;;;;;8.95;4.75;;;;;;;15.54;100.00;99829.41;4992368;28;20519;-85
2021/08/07 00:32:32;;;;;;;7.38;5.22;;;;;;;15.33;100.00;99825.09;4990113;28;20202;-85
2021/08/07 00:34:59;;;;;;;7.00;5.07;;;;;;;15.38;100.00;99822.00;4980170;28;20094;-85
2021/08/07 00:37:27;;;;;;;8.90;5.05;;;;;;;15.42;100.00;99824.25;5005543;28;20406;-86
2021/08/07 00:39:54;;;;;;;6.88;5.03;;;;;;;15.54;100.00;99824.09;4994904;28;20057;-85
2021/08/07 00:42:21;;;;;;;6.05;4.78;;;;;;;15.36;100.00;99827.47;4970301;28;20770;-85
2021/08/07 00:44:49;;;;;;;7.72;4.38;;;;;;;15.42;100.00;99823.41;4976111;28;20083;-87
2021/08/07 00:47:16;;;;;;;6.85;5.00;;;;;;;15.37;100.00;99828.31;5014401;28;20126;-86
2021/08/07 00:49:44;;;;;;;7.38;4.97;;;;;;;15.35;100.00;99828.44;4993246;28;20050;-87
2021/08/07 00:52:11;;;;;;;8.13;5.70;;;;;;;15.31;100.00;99826.19;4971162;28;20046;-87
2021/08/07 00:54:39;;;;;;;12.45;5.28;;;;;;;15.25;100.00;99829.41;5008096;28;20080;-88
2021/08/07 00:57:06;;;;;;;9.32;5.35;;;;;;;15.19;100.00;99823.69;4988109;28;20045;-85
2021/08/07 00:59:33;;;;;;;5.68;4.72;;;;;;;15.37;100.00;99831.78;4977060;28;20042;-86
2021/08/07 01:02:03;;;;;;;10.80;6.30;;;;;;;15.36;100.00;99823.97;4990998;28;20084;-88
2021/08/07 01:05:08;;;;;;;6.68;5.53;;;;;;;15.13;100.00;99820.75;4955686;28;20508;-85
2021/08/07 01:07:41;;;;;;;7.57;5.72;;;;;;;15.02;100.00;99826.19;4956740;28;20141;-88
2021/08/07 01:10:17;;;;;;;10.55;5.75;;;;;;;15.05;100.00;99821.47;4990421;28;20058;-85
2021/08/07 01:13:06;;;;;;;5.68;4.90;;;;;;;15.25;100.00;99827.59;4966830;28;20106;-84
2021/08/07 01:15:38;;;;;;;7.20;5.57;;;;;;;15.16;100.00;99823.13;5001289;28;20057;-87
2021/08/07 01:18:08;;;;;;;9.82;5.78;;;;;;;15.15;100.00;99832.91;4960485;28;20424;-88
2021/08/07 01:20:42;;;;;;;9.45;5.32;;;;;;;15.27;100.00;99827.47;4979545;28;20679;-86
2021/08/07 01:23:30;;;;;;;7.32;5.60;;;;;;;15.31;100.00;99827.06;4998357;28;20058;-86
2021/08/07 01:26:01;;;;;;;6.90;5.55;;;;;;;15.29;100.00;99828.16;4988151;28;20117;-85
2021/08/07 01:28:31;;;;;;;7.63;5.78;;;;;;;15.02;100.00;99819.09;4975334;28;20054;-88
2021/08/07 01:30:58;;;;;;;7.22;6.32;;;;;;;15.00;100.00;99814.91;5008715;28;20034;-86
2021/08/07 01:33:27;;;;;;;9.90;6.32;;;;;;;14.99;100.00;99811.41;4987902;28;20085;-87
2021/08/07 01:35:54;;;;;;;11.50;6.80;;;;;;;14.95;100.00;99807.38;5007847;28;20451;-90
2021/08/07 01:38:22;;;;;;;9.18;6.88;;;;;;;14.98;100.00;99824.78;4982739;28;20060;-89
2021/08/07 01:40:49;;;;;;;11.55;6.78;;;;;;;14.95;100.00;99817.97;5010869;28;20241;-87
2021/08/07 01:43:16;;;;;;;7.30;6.32;;;;;;;15.03;100.00;99822.56;5011997;28;20068;-87
2021/08/07 01:45:47;;;;;;;11.88;6.95;;;;;;;14.86;100.00;99821.41;5001731;28;20054;-87
2021/08/07 01:48:29;;;;;;;8.98;6.65;;;;;;;14.97;100.00;99817.81;4999603;28;20536;-88
2021/08/07 01:51:07;;;;;;;6.68;5.63;;;;;;;14.99;100.00;99815.88;4976685;28;20076;-88
2021/08/07 01:53:35;;;;;;;6.60;5.90;;;;;;;14.98;100.00;99820.31;4987624;28;20133;-88
2021/08/07 01:56:16;;;;;;;8.75;6.18;;;;;;;14.98;100.00;99815.03;4991937;28;20128;-88
2021/08/07 01:58:53;;;;;;;12.57;7.15;;;;;;;14.87;100.00;99813.34;5005887;28;20129;-87
2021/08/07 02:01:24;;;;;;;7.75;5.97;;;;;;;14.91;100.00;99812.09;4990533;28;20139;-87
2021/08/07 02:03:56;;;;;;;9.90;6.82;;;;;;;14.83;100.00;99811.94;5008911;28;20396;-85
2021/08/07 02:06:24;;;;;;;9.23;7.07;;;;;;;14.75;100.00;99811.78;4994433;28;20066;-88
2021/08/07 02:08:52;;;;;;;10.57;6.53;;;;;;;14.78;100.00;99814.19;5005642;28;20121;-89
2021/08/07 02:11:20;;;;;;;8.35;7.50;;;;;;;14.54;100.00;99814.53;4990182;28;20089;-86
2021/08/07 02:13:47;;;;;;;7.03;6.28;;;;;;;14.81;100.00;99818.34;4992696;28;20050;-87
2021/08/07 02:16:16;;;;;;;10.95;7.07;;;;;;;14.74;100.00;99809.28;5004093;28;20181;-89
2021/08/07 02:18:44;;;;;;;7.68;6.93;;;;;;;14.75;100.00;99817.09;4993948;28;20070;-88
2021/08/07 02:21:12;;;;;;;7.28;6.57;;;;;;;14.73;100.00;99818.22;5014425;28;20093;-88
2021/08/07 02:23:40;;;;;;;7.68;6.32;;;;;;;14.76;100.00;99815.28;5002227;28;20084;-87
2021/08/07 02:26:08;;;;;;;9.07;6.07;;;;;;;14.73;100.00;99816.41;4993860;28;20544;-89
2021/08/07 02:28:36;;;;;;;8.02;7.22;;;;;;;14.78;100.00;99808.06;5008436;28;20046;-89
2021/08/07 02:31:03;;;;;;;13.05;7.22;;;;;;;14.68;100.00;99806.22;4985034;28;20109;-89
2021/08/07 02:33:31;;;;;;;8.52;6.22;;;;;;;14.85;100.00;99807.34;4994798;28;20112;-87
2021/08/07 02:35:59;;;;;;;8.15;6.35;;;;;;;14.85;100.00;99806.50;5003612;28;20061;-86
2021/08/07 02:38:27;;;;;;;8.10;6.45;;;;;;;14.93;100.00;99822.56;5003749;28;20076;-85
2021/08/07 02:40:55;;;;;;;10.15;6.88;;;;;;;14.84;100.00;99820.75;5015142;28;20050;-89
2021/08/07 02:43:22;;;;;;;10.00;6.03;;;;;;;14.67;100.00;99823.06;4968944;28;20046;-87
2021/08/07 02:45:50;;;;;;;10.35;6.68;;;;;;;14.71;100.00;99828.09;5024425;28;20042;-86
2021/08/07 02:48:17;;;;;;;9.23;6.18;;;;;;;14.67;100.00;99823.06;4998622;28;20105;-86
2021/08/07 02:50:45;;;;;;;9.35;7.10;;;;;;;14.65;100.00;99817.06;5010595;28;20077;-85
2021/08/07 02:53:13;;;;;;;11.13;6.55;;;;;;;14.57;100.00;99821.38;4999508;28;20085;-86
2021/08/07 02:55:40;;;;;;;11.02;6.75;;;;;;;14.65;100.00;99814.44;4992927;28;20073;-87
2021/08/07 02:58:08;;;;;;;10.10;6.85;;;;;;;14.64;100.00;99820.72;5006101;28;20038;-85
2021/08/07 03:00:36;;;;;;;10.98;6.60;;;;;;;14.68;100.00;99811.53;5013568;28;20232;-86
2021/08/07 03:03:04;;;;;;;8.05;6.53;;;;;;;14.69;100.00;99820.31;4995521;28;20050;-89
2021/08/07 03:05:33;;;;;;;8.27;6.47;;;;;;;14.73;100.00;99823.53;5021011;28;20074;-89
2021/08/07 03:08:00;;;;;;;6.70;5.80;;;;;;;14.74;100.00;99827.84;5001413;28;20644;-90
2021/08/07 03:10:27;;;;;;;8.48;6.50;;;;;;;14.57;100.00;99832.81;5012836;28;20085;-89
2021/08/07 03:12:56;;;;;;;9.88;6.82;;;;;;;14.53;100.00;99826.09;5010071;28;20073;-87
2021/08/07 03:15:24;;;;;;;9.48;6.50;;;;;;;14.53;100.00;99828.75;5010766;28;20132;-87
2021/08/07 03:17:52;;;;;;;14.40;6.97;;;;;;;14.49;100.00;99819.41;4978946;28;20062;-87
2021/08/07 03:20:19;;;;;;;13.70;6.93;;;;;;;14.54;100.00;99821.63;4994515;28;20042;-86
2021/08/07 03:22:47;;;;;;;7.53;6.60;;;;;;;14.41;100.00;99817.41;4964419;28;20081;-88
2021/08/07 03:25:14;;;;;;;9.05;6.97;;;;;;;14.55;100.00;99824.19;4995499;28;20065;-87
2021/08/07 03:27:41;;;;;;;8.32;6.95;;;;;;;14.67;100.00;99827.53;4993079;28;20058;-88
2021/08/07 03:30:09;;;;;;;14.55;6.75;;;;;;;14.63;100.00;99827.00;4989671;28;20046;-88
2021/08/07 03:32:36;;;;;;;9.23;7.00;;;;;;;14.59;100.00;99835.31;4990620;28;20100;-89
2021/08/07 03:35:05;;;;;;;9.65;6.57;;;;;;;14.44;100.00;99827.72;4999539;28;20061;-87
2021/08/07 03:37:32;;;;;;;11.27;6.40;;;;;;;14.46;100.00;99829.41;4993689;28;20061;-88
2021/08/07 03:39:59;;;;;;;8.60;7.10;;;;;;;14.52;100.00;99828.91;5013175;28;20291;-87
2021/08/07 03:42:27;;;;;;;11.18;7.30;;;;;;;14.35;100.00;99825.03;5010609;28;20124;-90
2021/08/07 03:44:55;;;;;;;10.85;7.32;;;;;;;14.26;100.00;99828.50;5005277;28;20060;-87
2021/08/07 03:47:22;;;;;;;11.98;8.13;;;;;;;14.25;100.00;99810.94;5004173;28;20072;-89
2021/08/07 03:49:50;;;;;;;11.48;8.45;;;;;;;14.29;100.00;99810.53;5000511;28;20050;-89
2021/08/07 03:52:17;;;;;;;13.65;11.40;;;;;;;14.28;100.00;99802.72;4986602;28;20058;-90
2021/08/07 03:54:44;;;;;;;12.80;8.10;;;;;;;14.41;100.00;99803.34;4979870;28;20038;-86
2021/08/07 03:57:12;;;;;;;12.63;7.88;;;;;;;14.65;100.00;99803.00;5004924;28;20112;-86
2021/08/07 03:59:39;;;;;;;8.82;7.90;;;;;;;14.38;100.00;99807.09;4998015;28;20060;-85
2021/08/07 04:02:06;;;;;;;9.68;7.13;;;;;;;14.46;100.00;99819.66;4974283;28;20058;-87
2021/08/07 04:04:33;;;;;;;10.45;7.07;;;;;;;14.67;100.00;99812.47;4962993;28;20113;-87
2021/08/07 04:07:01;;;;;;;8.43;7.10;;;;;;;14.69;100.00;99817.66;4990208;28;20121;-87
2021/08/07 04:09:28;;;;;;;8.18;6.82;;;;;;;14.76;100.00;99816.13;5004362;28;20068;-85
2021/08/07 04:11:55;;;;;;;10.60;6.53;;;;;;;14.91;100.00;99813.94;5002105;28;20351;-85
2021/08/07 04:14:22;;;;;;;8.75;5.72;;;;;;;14.98;100.00;99815.03;5006762;28;20070;-86
2021/08/07 04:16:50;;;;;;;8.27;6.13;;;;;;;14.87;100.00;99816.00;5000758;28;20053;-87
2021/08/07 04:19:17;;;;;;;7.95;6.35;;;;;;;14.99;100.00;99815.88;4976609;28;20125;-89
2021/08/07 04:21:44;;;;;;;8.07;5.90;;;;;;;15.11;100.00;99820.91;5010121;28;20046;-89
2021/08/07 04:24:11;;;;;;;8.15;6.55;;;;;;;15.10;100.00;99821.03;4994638;28;20046;-90
2021/08/07 04:26:39;;;;;;;10.23;6.68;;;;;;;15.06;100.00;99823.13;4984627;28;20067;-84
2021/08/07 04:29:07;;;;;;;9.02;5.85;;;;;;;15.13;100.00;99818.09;4998325;28;20046;-83
2021/08/07 04:31:34;;;;;;;7.60;5.80;;;;;;;15.21;100.00;99820.91;5020643;28;20150;-84
2021/08/07 04:34:01;;;;;;;9.35;6.57;;;;;;;15.41;100.00;99817.28;5000439;28;20050;-82
2021/08/07 04:36:28;;;;;;;8.07;5.68;;;;;;;15.51;100.00;99827.03;5025409;28;20042;-83
2021/08/07 04:38:55;;;;;;;6.35;5.57;;;;;;;15.73;100.00;99825.91;5024333;28;20046;-83
2021/08/07 04:41:23;;;;;;;13.88;5.10;;;;;;;16.09;100.00;99830.44;5023980;28;20045;-85
2021/08/07 04:43:50;;;;;;;4.47;3.85;;;;;;;16.70;100.00;99823.69;5037628;28;20064;-83
2021/08/07 04:46:17;;;;;;;4.75;3.70;;;;;;;17.59;100.00;99830.88;5010312;28;20034;-81
2021/08/07 04:48:44;;;;;;;5.47;3.53;;;;;;;18.43;100.00;99822.25;5028438;28;20076;-87
2021/08/07 04:51:14;;;;;;;4.28;2.92;;;;;;;19.10;98.10;99827.63;5015027;28;20050;-84
2021/08/07 04:53:42;;;;;;;4.85;2.83;;;;;;;19.87;88.70;99828.16;5001409;28;20077;-89
2021/08/07 04:56:09;;;;;;;3.83;2.72;;;;;;;20.21;84.05;99826.03;4978971;28;20195;-89
2021/08/07 04:58:36;;;;;;;6.07;3.10;;;;;;;20.96;78.99;99827.41;4985376;28;20093;-89
2021/08/07 05:01:03;;;;;;;3.15;2.50;;;;;;;21.54;75.17;99825.16;5011716;28;20224;-87
2021/08/07 05:03:31;;;;;;;3.08;2.78;;;;;;;21.91;72.99;99829.66;4997673;28;20587;-88
2021/08/07 05:05:58;;;;;;;4.03;2.70;;;;;;;22.20;70.83;99831.59;5010451;28;20121;-90
2021/08/07 05:08:25;;;;;;;4.28;2.50;;;;;;;22.55;69.23;99826.44;4985793;28;20046;-86
2021/08/07 05:10:53;;;;;;;8.93;2.72;;;;;;;23.19;67.90;99829.25;5005152;28;20088;-89
2021/08/07 05:13:20;;;;;;;7.70;2.30;;;;;;;23.63;66.28;99831.72;4981693;28;20050;-87
2021/08/07 05:15:48;;;;;;;3.38;2.30;;;;;;;24.33;62.28;99829.97;5006952;28;20133;-89
2021/08/07 05:18:15;;;;;;;5.70;2.15;;;;;;;24.35;62.47;99825.19;4992483;28;20073;-85
2021/08/07 05:20:42;;;;;;;3.97;2.45;;;;;;;24.49;61.90;99826.94;4990409;28;20102;-88
2021/08/07 05:23:10;;;;;;;9.35;2.40;;;;;;;24.84;60.30;99824.19;5002942;28;20060;-88
2021/08/07 05:25:38;;;;;;;4.60;2.33;;;;;;;25.29;58.17;99827.22;5005091;28;20077;-86
2021/08/07 05:28:05;;;;;;;5.72;2.15;;;;;;;25.74;57.61;99830.13;4985039;28;20058;-85
2021/08/07 05:30:32;;;;;;;4.22;2.15;;;;;;;26.56;54.22;99826.03;5004144;28;20141;-86
2021/08/07 05:32:59;;;;;;;2.97;1.90;;;;;;;27.12;52.28;99835.38;5004721;28;20140;-87
2021/08/07 05:35:26;;;;;;;5.88;2.80;;;;;;;26.87;52.90;99835.25;5006863;28;20085;-84
2021/08/07 05:37:54;;;;;;;5.45;2.33;;;;;;;27.57;50.87;99836.06;4973364;28;20385;-85
2021/08/07 05:40:21;;;;;;;5.47;2.53;;;;;;;28.21;48.66;99842.97;4996400;28;20157;-86
2021/08/07 05:42:48;;;;;;;4.53;2.03;;;;;;;27.87;49.73;99833.53;4991404;28;20389;-85
2021/08/07 05:45:15;;;;;;;2.55;2.20;;;;;;;28.54;48.44;99840.97;4994190;28;20045;-84
2021/08/07 05:47:43;;;;;;;5.00;2.17;;;;;;;28.77;47.21;99841.09;4975024;28;20077;-86
2021/08/07 05:50:10;;;;;;;6.30;1.92;;;;;;;29.05;45.12;99837.84;5010595;28;20068;-83
2021/08/07 05:52:38;;;;;;;2.67;1.90;;;;;;;29.73;42.91;99842.03;4991481;28;20054;-85
2021/08/07 05:55:06;;;;;;;4.75;1.98;;;;;;;30.61;41.37;99842.88;5008963;28;20417;-84
2021/08/07 05:57:33;;;;;;;4.63;2.13;;;;;;;31.06;40.27;99842.16;4990593;28;20106;-86
2021/08/07 06:00:02;;;;;;;6.75;1.90;;;;;;;30.95;39.56;99838.44;4989961;28;20155;-84
2021/08/07 06:02:32;;;;;;;4.93;2.20;;;;;;;30.93;39.90;99848.72;4972259;28;20058;-84
2021/08/07 06:05:00;;;;;;;5.45;1.98;;;;;;;31.07;39.51;99849.25;4975576;28;20049;-84
2021/08/07 06:07:27;;;;;;;3.85;2.30;;;;;;;31.60;38.28;99854.28;4991458;28;20064;-84
2021/08/07 06:09:54;;;;;;;5.05;2.47;;;;;;;31.13;38.98;99859.97;4961296;28;20465;-83
2021/08/07 06:12:22;;;;;;;3.20;2.20;;;;;;;31.62;38.53;99857.59;4986026;28;20088;-84
2021/08/07 06:14:49;;;;;;;5.97;2.33;;;;;;;31.24;38.93;99858.25;4992640;28;20076;-84
2021/08/07 06:17:16;;;;;;;4.40;2.30;;;;;;;31.09;39.28;99863.44;5008021;28;20050;-84
2021/08/07 06:19:44;;;;;;;3.40;2.20;;;;;;;31.45;38.99;99863.03;5009948;28;20054;-82
2021/08/07 06:22:11;;;;;;;3.42;1.90;;;;;;;31.78;38.20;99867.63;5008242;28;20086;-85
2021/08/07 06:24:38;;;;;;;3.42;2.30;;;;;;;31.45;39.28;99871.19;4978448;28;20142;-83
2021/08/07 06:27:05;;;;;;;3.22;2.45;;;;;;;30.33;41.38;99879.78;5006985;28;20465;-83
2021/08/07 06:29:33;;;;;;;4.15;2.30;;;;;;;31.04;40.29;99877.75;4957951;28;20045;-82
2021/08/07 06:32:00;;;;;;;3.42;2.08;;;;;;;31.93;38.01;99874.44;5007857;28;20042;-84
2021/08/07 06:34:27;;;;;;;9.90;2.65;;;;;;;31.66;38.36;99875.09;4992682;28;20046;-84
2021/08/07 06:36:54;;;;;;;3.50;2.38;;;;;;;31.67;38.09;99876.72;4972846;28;20045;-80
2021/08/07 06:39:22;;;;;;;4.38;2.20;;;;;;;30.86;39.20;99883.38;4986469;28;20576;-82
2021/08/07 06:41:49;;;;;;;4.70;2.60;;;;;;;30.75;40.51;99883.16;4990941;28;20399;-84
2021/08/07 06:44:16;;;;;;;7.57;2.67;;;;;;;31.29;39.26;99871.97;4982124;28;20517;-82
2021/08/07 06:46:43;;;;;;;5.85;2.97;;;;;;;31.94;37.70;99878.81;4988397;28;20159;-83
2021/08/07 06:49:11;;;;;;;4.47;2.85;;;;;;;31.71;37.76;99877.06;4981128;28;20209;-83
2021/08/07 06:51:38;;;;;;;4.45;2.80;;;;;;;32.42;36.68;99880.06;4992465;28;20053;-80
2021/08/07 06:54:05;;;;;;;10.30;3.17;;;;;;;31.88;38.03;99887.94;5015804;28;20052;-80
2021/08/07 06:56:32;;;;;;;3.20;2.38;;;;;;;31.63;38.95;99891.06;4973246;28;20054;-81
2021/08/07 06:59:00;;;;;;;4.93;2.45;;;;;;;31.59;38.88;99888.00;4972040;28;20046;-82
2021/08/07 07:01:27;;;;;;;4.88;2.50;;;;;;;31.55;38.86;99886.03;4984470;28;20055;-84
2021/08/07 07:03:54;;;;;;;7.90;2.47;;;;;;;31.00;39.63;99892.91;4976038;28;20149;-80
2021/08/07 07:06:22;;;;;;;4.95;2.92;;;;;;;31.80;38.08;99889.19;5009388;28;20129;-81
2021/08/07 07:08:49;;;;;;;4.97;2.28;;;;;;;31.46;38.47;99885.59;4985980;28;20128;-81
2021/08/07 07:11:17;;;;;;;3.65;2.50;;;;;;;32.28;36.66;99885.81;4987003;28;20053;-80
2021/08/07 07:13:45;;;;;;;6.05;3.10;;;;;;;32.31;37.03;99887.25;5012170;28;20569;-80
2021/08/07 07:16:13;;;;;;;4.45;2.30;;;;;;;31.82;36.96;99884.31;5002182;28;20125;-82
2021/08/07 07:18:40;;;;;;;4.65;2.30;;;;;;;31.87;37.44;99881.69;4997502;28;20078;-82
2021/08/07 07:21:09;;;;;;;4.28;2.55;;;;;;;32.26;37.26;99889.91;4992601;28;20046;-80
2021/08/07 07:23:36;;;;;;;6.25;2.40;;;;;;;33.06;35.31;99890.41;4992593;28;20061;-81
2021/08/07 07:26:04;;;;;;;3.55;2.70;;;;;;;32.88;35.58;99891.56;4973728;28;20513;-82
2021/08/07 07:28:31;;;;;;;3.75;2.00;;;;;;;32.20;37.20;99889.00;4998635;28;20065;-80
2021/08/07 07:30:58;;;;;;;5.50;2.38;;;;;;;33.33;34.31;99890.41;4992467;28;20680;-81
2021/08/07 07:33:25;;;;;;;17.73;2.53;;;;;;;33.26;34.61;99891.44;5005939;28;20168;-79
2021/08/07 07:35:53;;;;;;;3.72;2.38;;;;;;;33.69;33.31;99894.31;4960722;28;20128;-80
2021/08/07 07:38:20;;;;;;;4.93;3.00;;;;;;;33.42;34.15;99888.88;4999367;28;20046;-82
2021/08/07 07:40:47;;;;;;;5.65;2.05;;;;;;;33.25;33.43;99892.53;5005444;28;21415;-81
2021/08/07 07:43:15;;;;;;;3.30;2.33;;;;;;;33.21;34.03;99891.38;4973528;28;20084;-82
2021/08/07 07:45:42;;;;;;;5.88;2.67;;;;;;;33.10;34.18;99900.56;5010877;28;20065;-79
2021/08/07 07:48:09;;;;;;;5.07;2.47;;;;;;;34.07;32.15;99903.38;4983649;28;20364;-80
2021/08/07 07:50:36;;;;;;;7.03;2.72;;;;;;;34.23;33.44;99895.00;4993309;28;20081;-82
2021/08/07 07:53:04;;;;;;;2.95;2.30;;;;;;;33.53;33.98;99892.53;4989846;28;20516;-81
2021/08/07 07:55:31;;;;;;;3.10;2.17;;;;;;;33.72;33.69;99894.59;4993689;28;20108;-79
2021/08/07 07:57:59;;;;;;;2.72;2.30;;;;;;;33.79;33.42;99897.13;4975017;28;20113;-82
2021/08/07 08:00:26;;;;;;;3.15;2.13;;;;;;;33.90;33.36;99885.19;4976776;28;20065;-81
2021/08/07 08:02:54;;;;;;;6.10;2.42;;;;;;;33.47;33.99;99880.75;4966588;28;20046;-81
2021/08/07 08:05:22;;;;;;;3.67;2.30;;;;;;;33.67;33.21;99878.19;4993760;28;20489;-79
2021/08/07 08:07:49;;;;;;;3.95;2.40;;;;;;;33.78;33.54;99876.38;5001640;28;20052;-80
2021/08/07 08:10:17;;;;;;;4.13;2.55;;;;;;;33.89;33.24;99880.81;4993431;28;20058;-82
2021/08/07 08:12:44;;;;;;;4.80;2.30;;;;;;;33.49;34.03;99876.66;5003075;28;20050;-80
2021/08/07 08:15:13;;;;;;;4.18;2.10;;;;;;;32.98;34.02;99880.78;5004900;28;20068;-79
2021/08/07 08:17:40;;;;;;;6.13;2.28;;;;;;;34.04;32.87;99871.94;4988235;28;20050;-80
2021/08/07 08:20:09;;;;;;;4.95;1.98;;;;;;;33.69;33.46;99876.03;4987382;28;20052;-79
2021/08/07 08:22:36;;;;;;;5.32;2.30;;;;;;;33.77;33.54;99877.44;5013519;28;20527;-81
2021/08/07 08:25:06;;;;;;;5.40;2.45;;;;;;;34.10;32.55;99872.81;5017586;28;20139;-80
2021/08/07 08:27:34;;;;;;;2.88;2.10;;;;;;;33.95;31.92;99877.09;4991223;28;20138;-79
2021/08/07 08:30:04;;;;;;;4.97;2.40;;;;;;;33.86;32.64;99875.88;5014053;28;20157;-78
2021/08/07 08:32:31;;;;;;;2.95;1.83;;;;;;;33.41;33.67;99879.00;4994679;28;20050;-78
2021/08/07 08:34:59;;;;;;;3.47;2.45;;;;;;;34.00;32.14;99879.84;4971531;28;20178;-79
2021/08/07 08:37:26;;;;;;;3.17;2.03;;;;;;;33.81;32.90;99877.75;5000908;28;20068;-80
2021/08/07 08:39:53;;;;;;;2.67;1.50;;;;;;;32.83;34.60;99875.97;4990401;28;20060;-82
2021/08/07 08:42:21;;;;;;;3.72;2.20;;;;;;;30.54;38.67;99881.06;4990719;28;20542;-80
2021/08/07 08:44:48;;;;;;;3.28;1.63;;;;;;;28.73;41.57;99875.97;5009743;28;20142;-79
2021/08/07 08:47:19;;;;;;;3.70;2.20;;;;;;;28.22;43.29;99879.00;4983056;28;20045;-80
2021/08/07 08:49:46;;;;;;;5.05;2.83;;;;;;;27.79;44.10;99882.53;4992181;28;20132;-80
2021/08/07 08:52:14;;;;;;;5.07;1.98;;;;;;;27.17;45.56;99882.28;4989094;28;20133;-85
2021/08/07 08:54:42;;;;;;;5.57;1.88;;;;;;;26.60;46.69;99883.13;4992079;28;20124;-81
2021/08/07 08:57:09;;;;;;;5.38;1.60;;;;;;;26.60;46.93;99875.88;4987894;28;20127;-81
2021/08/07 08:59:37;;;;;;;4.95;1.42;;;;;;;26.10;48.27;99880.94;5008023;28;20066;-79
2021/08/07 09:02:04;;;;;;;3.72;1.73;;;;;;;25.85;48.87;99882.59;5007647;28;20409;-79
2021/08/07 09:04:31;;;;;;;2.28;1.65;;;;;;;26.05;49.29;99886.13;5024272;28;20141;-81
2021/08/07 09:06:59;;;;;;;2.97;1.70;;;;;;;26.47;48.74;99884.00;5008565;28;20088;-82
2021/08/07 09:09:46;;;;;;;3.97;1.70;;;;;;;26.34;48.86;99879.44;4983447;28;20050;-79
2021/08/07 09:12:13;;;;;;;4.63;1.75;;;;;;;26.09;48.23;99882.00;4988500;28;20145;-79
2021/08/07 09:14:43;;;;;;;2.25;1.40;;;;;;;26.20;48.22;99884.03;4979214;28;20042;-79
2021/08/07 09:17:17;;;;;;;3.42;1.20;;;;;;;26.17;48.25;99886.34;4973644;28;20046;-81
2021/08/07 09:19:45;;;;;;;2.45;1.50;;;;;;;26.24;47.55;99884.44;4976803;28;20429;-80
2021/08/07 09:22:17;;;;;;;2.75;1.33;;;;;;;25.93;48.47;99891.31;5007489;28;20129;-80
2021/08/07 09:25:09;;;;;;;4.55;1.45;;;;;;;25.66;49.11;99884.25;4986825;28;20077;-80
2021/08/07 09:27:45;;;;;;;3.05;1.55;;;;;;;25.92;47.92;99886.16;5004859;28;20061;-80
2021/08/07 09:30:13;;;;;;;3.38;1.67;;;;;;;25.60;49.33;99885.06;5006656;28;20054;-79
2021/08/07 09:32:44;;;;;;;1.95;1.60;;;;;;;25.74;48.80;99887.56;4998445;28;20054;-80
2021/08/07 09:35:13;;;;;;;4.10;1.73;;;;;;;25.72;49.24;99883.44;4966366;28;20048;-80
2021/08/07 09:37:41;;;;;;;3.53;1.95;;;;;;;25.85;48.67;99885.31;4979043;28;20050;-79
2021/08/07 09:40:11;;;;;;;2.92;1.20;;;;;;;26.21;47.95;99877.63;4991935;28;20105;-80
2021/08/07 09:42:52;;;;;;;2.03;1.23;;;;;;;26.52;47.27;99892.28;4997332;28;20050;-80
2021/08/07 09:45:26;;;;;;;2.55;1.40;;;;;;;26.53;47.15;99887.75;4989754;28;20045;-79
2021/08/07 09:47:59;;;;;;;3.50;1.67;;;;;;;26.35;47.40;99883.00;4990884;28;20153;-80
2021/08/07 09:50:28;;;;;;;2.55;1.45;;;;;;;26.81;45.47;99871.22;5006561;28;20061;-83
2021/08/07 09:52:56;;;;;;;3.88;1.30;;;;;;;26.86;44.85;99869.53;4983826;28;20080;-79
2021/08/07 09:55:24;;;;;;;6.35;1.02;;;;;;;26.99;43.98;99860.53;4977582;28;20049;-78
2021/08/07 09:58:10;;;;;;;7.50;1.73;;;;;;;26.67;45.17;99867.75;4977087;28;20128;-80
2021/08/07 10:00:43;;;;;;;2.47;1.10;;;;;;;26.80;45.26;99858.78;5002623;28;20521;-80
2021/08/07 10:03:13;;;;;;;6.80;1.10;;;;;;;27.14;45.21;99852.16;4974244;28;20058;-81
2021/08/07 10:05:40;;;;;;;2.65;1.10;;;;;;;27.12;44.50;99851.56;4974004;28;20080;-79
2021/08/07 10:08:09;;;;;;;2.13;1.20;;;;;;;26.99;45.25;99853.25;4994750;28;20085;-79
2021/08/07 10:10:36;;;;;;;3.83;1.30;;;;;;;27.18;44.09;99848.00;4977289;28;20461;-79
2021/08/07 10:13:05;;;;;;;7.18;1.80;;;;;;;27.01;43.66;99845.75;4973454;28;20082;-79
2021/08/07 10:15:32;;;;;;;1.25;1.13;;;;;;;27.00;43.59;99856.78;4973086;28;20113;-79
2021/08/07 10:18:01;;;;;;;1.85;1.10;;;;;;;27.10;43.54;99842.84;5005135;28;20499;-79
2021/08/07 10:20:28;;;;;;;1.52;1.00;;;;;;;27.13;43.39;99840.53;4976473;28;20116;-80
2021/08/07 10:22:56;;;;;;;1.80;1.00;;;;;;;27.35;42.70;99849.13;4990790;28;20514;-79
2021/08/07 10:25:24;;;;;;;3.35;0.90;;;;;;;27.47;42.48;99841.16;4981124;28;20524;-80
2021/08/07 10:27:56;;;;;;;1.40;1.20;;;;;;;26.30;43.24;99829.66;4987083;28;20527;-79
2021/08/07 10:30:24;;;;;;;2.75;0.90;;;;;;;26.85;42.18;99834.66;4996670;28;20523;-83
2021/08/07 10:32:55;;;;;;;1.70;1.10;;;;;;;27.37;40.52;99836.22;4993478;28;20057;-81
2021/08/07 10:35:24;;;;;;;2.55;1.00;;;;;;;27.06;42.34;99828.06;4977839;28;20073;-81
2021/08/07 10:37:54;;;;;;;1.33;1.08;;;;;;;27.13;41.73;99831.59;5009582;28;20045;-79
2021/08/07 10:40:24;;;;;;;2.65;0.90;;;;;;;27.12;42.46;99829.97;5012881;28;20140;-82
2021/08/07 10:42:52;;;;;;;2.63;1.15;;;;;;;26.97;42.34;99827.50;4992891;28;20492;-80
2021/08/07 10:45:23;;;;;;;2.38;1.10;;;;;;;27.10;41.95;99827.44;4996191;28;20073;-79
2021/08/07 10:47:51;;;;;;;1.60;1.05;;;;;;;27.18;43.36;99819.09;5009241;28;20141;-84
2021/08/07 10:50:24;;;;;;;1.92;1.20;;;;;;;26.92;42.74;99817.34;5003146;28;20078;-82
2021/08/07 10:52:52;;;;;;;1.33;1.00;;;;;;;26.71;43.39;99815.81;4992401;28;20042;-78
2021/08/07 10:55:44;;;;;;;1.45;0.95;;;;;;;26.65;43.33;99821.22;5014196;28;20033;-79
2021/08/07 10:58:33;;;;;;;3.10;1.33;;;;;;;26.69;42.48;99807.09;5021224;28;20050;-80
2021/08/07 11:01:25;;;;;;;1.52;0.93;;;;;;;27.02;42.44;99803.41;5012328;28;20209;-80
2021/08/07 11:04:02;;;;;;;2.13;1.00;;;;;;;27.26;41.79;99807.19;5006792;28;20129;-81
2021/08/07 11:06:38;;;;;;;2.42;1.10;;;;;;;27.68;40.35;99807.47;5008228;28;20142;-83
2021/08/07 11:09:15;;;;;;;4.45;1.10;;;;;;;27.71;39.73;99807.88;4986060;28;20136;-84
2021/08/07 11:11:43;;;;;;;2.17;1.30;;;;;;;27.71;39.82;99805.16;4974254;28;20349;-79
2021/08/07 11:14:25;;;;;;;1.73;1.20;;;;;;;27.96;40.32;99797.06;4992048;28;20140;-80
2021/08/07 11:17:04;;;;;;;2.53;1.17;;;;;;;27.68;40.63;99797.47;5001812;28;20049;-82
2021/08/07 11:20:00;;;;;;;3.42;1.25;;;;;;;27.65;40.94;99787.13;4985775;28;20319;-80
2021/08/07 11:22:40;;;;;;;13.48;1.10;;;;;;;27.44;41.97;99790.22;4990660;28;20165;-79
2021/08/07 11:25:17;;;;;;;3.13;1.13;;;;;;;27.35;41.56;99799.66;5005698;28;20600;-80
2021/08/07 11:27:44;;;;;;;1.63;1.20;;;;;;;27.60;41.16;99803.16;4976700;28;20057;-79
2021/08/07 11:30:14;;;;;;;2.05;0.80;;;;;;;27.42;41.51;99812.06;5012764;28;20633;-79
2021/08/07 11:32:42;;;;;;;3.30;0.90;;;;;;;27.48;39.59;99810.38;5005656;28;20132;-79
2021/08/07 11:35:09;;;;;;;3.28;0.80;;;;;;;27.49;39.13;99809.31;5004281;28;20042;-81
2021/08/07 11:37:37;;;;;;;1.95;1.00;;;;;;;27.26;39.57;99807.19;4991204;28;20053;-79